createdAt,value
2018-07-09T00:02:16.316Z,90.40
2018-07-09T00:04:43.897Z,90.30
2018-07-09T00:07:11.442Z,90.30
2018-07-09T00:09:39.077Z,90.30
2018-07-09T00:12:06.725Z,90.50
2018-07-09T00:14:34.296Z,90.60
2018-07-09T00:17:01.828Z,90.70
2018-07-09T00:19:29.565Z,90.80
2018-07-09T00:21:57.129Z,90.80
2018-07-09T00:24:24.795Z,90.80
2018-07-09T00:26:52.357Z,90.80
2018-07-09T00:29:19.933Z,90.80
2018-07-09T00:31:48.088Z,90.80
2018-07-09T00:34:15.721Z,90.80
2018-07-09T00:36:44.063Z,90.80
2018-07-09T00:41:39.158Z,90.80
2018-07-09T00:44:06.765Z,90.90
2018-07-09T00:46:34.399Z,91.00
2018-07-09T00:49:02.117Z,91.10
2018-07-09T00:51:30.082Z,91.20
2018-07-09T00:53:57.793Z,91.30
2018-07-09T00:56:25.409Z,91.70
2018-07-09T00:58:52.941Z,91.70
2018-07-09T01:01:20.499Z,91.70
2018-07-09T01:03:48.031Z,91.50
2018-07-09T01:06:15.602Z,91.50
2018-07-09T01:08:43.681Z,91.50
2018-07-09T01:11:22.435Z,91.50
2018-07-09T01:13:49.968Z,91.50
2018-07-09T01:16:17.566Z,91.70
2018-07-09T01:18:45.137Z,91.80
2018-07-09T01:21:13.938Z,91.80
2018-07-09T01:23:41.562Z,92.00
2018-07-09T01:26:09.349Z,92.10
2018-07-09T01:28:37.808Z,92.20
2018-07-09T01:31:05.439Z,92.30
2018-07-09T01:33:33.071Z,92.50
2018-07-09T01:36:00.598Z,92.90
2018-07-09T01:38:28.114Z,92.70
2018-07-09T01:40:55.717Z,92.80
2018-07-09T01:43:23.243Z,93.10
2018-07-09T01:45:50.778Z,92.80
2018-07-09T01:48:18.304Z,93.00
2018-07-09T01:50:45.870Z,93.00
2018-07-09T01:53:13.400Z,93.10
2018-07-09T01:55:40.962Z,93.30
2018-07-09T01:58:08.526Z,93.50
2018-07-09T02:00:36.064Z,93.60
2018-07-09T02:03:03.670Z,93.60
2018-07-09T02:05:31.207Z,93.70
2018-07-09T02:07:58.776Z,93.80
2018-07-09T02:10:26.382Z,93.90
2018-07-09T02:12:53.956Z,93.90
2018-07-09T02:15:21.756Z,94.10
2018-07-09T02:17:49.276Z,94.10
2018-07-09T02:20:16.890Z,94.20
2018-07-09T02:22:44.440Z,94.30
2018-07-09T02:25:11.999Z,94.60
2018-07-09T02:27:39.575Z,94.80
2018-07-09T02:30:07.161Z,94.90
2018-07-09T02:32:34.776Z,95.00
2018-07-09T02:35:02.412Z,95.00
2018-07-09T02:37:30.022Z,95.20
2018-07-09T02:39:57.570Z,95.30
2018-07-09T02:42:25.156Z,95.50
2018-07-09T02:44:52.840Z,95.50
2018-07-09T02:47:20.382Z,95.60
2018-07-09T02:49:47.956Z,95.80
2018-07-09T02:52:15.520Z,95.60
2018-07-09T02:54:43.132Z,95.60
2018-07-09T02:57:10.703Z,95.70
2018-07-09T02:59:38.324Z,95.80
2018-07-09T03:02:06.041Z,95.90
2018-07-09T03:04:33.664Z,96.00
2018-07-09T03:07:01.198Z,96.20
2018-07-09T03:09:28.803Z,96.40
2018-07-09T03:11:56.603Z,96.40
2018-07-09T03:14:24.169Z,96.40
2018-07-09T03:16:51.742Z,96.40
2018-07-09T03:19:19.366Z,96.40
2018-07-09T03:21:46.964Z,96.50
2018-07-09T03:24:14.498Z,96.60
2018-07-09T03:26:42.197Z,96.60
2018-07-09T03:29:09.934Z,96.70
2018-07-09T03:31:37.539Z,96.50
2018-07-09T03:34:05.150Z,96.50
2018-07-09T03:36:32.719Z,96.50
2018-07-09T03:39:00.251Z,96.60
2018-07-09T03:41:27.817Z,96.60
2018-07-09T03:43:56.309Z,96.60
2018-07-09T03:46:23.905Z,96.60
2018-07-09T03:48:51.431Z,96.70
2018-07-09T03:51:19.005Z,96.80
2018-07-09T03:53:46.561Z,96.90
2018-07-09T03:56:14.145Z,97.10
2018-07-09T03:58:41.751Z,97.20
2018-07-09T04:01:09.342Z,97.70
2018-07-09T04:03:36.899Z,97.90
2018-07-09T04:06:04.471Z,97.60
2018-07-09T04:08:32.006Z,97.30
2018-07-09T04:10:59.560Z,97.10
2018-07-09T04:13:27.068Z,96.80
2018-07-09T04:15:54.664Z,96.30
2018-07-09T04:18:23.730Z,96.20
2018-07-09T04:20:52.099Z,96.00
2018-07-09T04:23:19.694Z,95.80
2018-07-09T04:25:48.965Z,96.00
2018-07-09T04:28:16.512Z,96.40
2018-07-09T04:30:44.061Z,96.90
2018-07-09T04:33:11.618Z,96.80
2018-07-09T04:35:39.187Z,96.70
2018-07-09T04:38:07.426Z,96.30
2018-07-09T04:40:35.836Z,95.80
2018-07-09T04:43:03.386Z,95.70
2018-07-09T04:45:30.942Z,95.20
2018-07-09T04:47:58.488Z,94.80
2018-07-09T04:50:26.238Z,94.40
2018-07-09T04:52:53.999Z,94.40
2018-07-09T04:55:24.456Z,94.70
2018-07-09T04:57:52.344Z,94.80
2018-07-09T05:00:19.904Z,94.70
2018-07-09T05:02:47.449Z,94.60
2018-07-09T05:05:14.986Z,94.50
2018-07-09T05:07:42.512Z,94.30
2018-07-09T05:10:10.078Z,94.30
2018-07-09T05:12:37.705Z,94.20
2018-07-09T05:15:05.298Z,94.00
2018-07-09T05:17:33.120Z,93.70
2018-07-09T05:27:24.998Z,93.20
2018-07-09T05:32:20.521Z,93.20
2018-07-09T05:34:48.924Z,93.20
2018-07-09T05:37:16.589Z,92.80
2018-07-09T05:39:44.738Z,92.50
2018-07-09T05:42:12.310Z,92.40
2018-07-09T05:44:39.957Z,92.00
2018-07-09T05:47:08.102Z,91.90
2018-07-09T05:49:35.722Z,91.80
2018-07-09T05:52:04.118Z,91.70
2018-07-09T05:54:31.651Z,91.50
2018-07-09T05:56:59.231Z,91.00
2018-07-09T05:59:28.414Z,90.70
2018-07-09T06:01:56.153Z,90.90
2018-07-09T06:04:23.875Z,90.90
2018-07-09T06:06:52.005Z,90.80
2018-07-09T06:09:19.820Z,90.50
2018-07-09T06:11:47.379Z,90.30
2018-07-09T06:14:15.170Z,90.10
2018-07-09T06:16:42.747Z,90.00
2018-07-09T06:19:10.311Z,90.00
2018-07-09T06:21:37.893Z,90.20
2018-07-09T06:24:05.568Z,90.30
2018-07-09T06:26:33.143Z,90.20
2018-07-09T06:29:00.715Z,89.60
2018-07-09T06:31:29.939Z,89.60
2018-07-09T06:33:57.886Z,89.40
2018-07-09T06:36:25.550Z,88.60
2018-07-09T06:38:54.385Z,88.30
2018-07-09T06:41:21.942Z,87.10
2018-07-09T06:43:49.489Z,87.10
2018-07-09T06:46:17.624Z,86.90
2018-07-09T06:48:45.167Z,86.40
2018-07-09T06:51:12.722Z,86.00
2018-07-09T06:53:40.308Z,85.90
2018-07-09T06:56:07.864Z,86.20
2018-07-09T06:58:35.443Z,86.30
2018-07-09T07:01:03.108Z,85.50
2018-07-09T07:03:30.684Z,84.30
2018-07-09T07:05:58.288Z,84.60
2018-07-09T07:08:25.884Z,85.30
2018-07-09T07:10:53.464Z,85.60
2018-07-09T07:13:21.084Z,84.70
2018-07-09T07:15:48.635Z,84.50
2018-07-09T07:18:16.214Z,84.00
2018-07-09T07:20:43.842Z,83.10
2018-07-09T07:23:11.438Z,82.50
2018-07-09T07:25:38.997Z,82.70
2018-07-09T07:28:06.584Z,82.40
2018-07-09T07:30:34.215Z,83.10
2018-07-09T07:33:01.807Z,83.00
2018-07-09T07:35:29.410Z,83.20
2018-07-09T07:37:57.019Z,82.70
2018-07-09T07:40:24.568Z,82.70
2018-07-09T07:42:52.410Z,82.00
2018-07-09T07:45:19.937Z,81.50
2018-07-09T07:47:47.497Z,80.20
2018-07-09T07:50:15.170Z,80.40
2018-07-09T07:52:42.739Z,80.80
2018-07-09T07:55:10.328Z,80.90
2018-07-09T07:57:37.915Z,80.70
2018-07-09T08:00:06.199Z,80.20
2018-07-09T08:02:33.757Z,80.30
2018-07-09T08:05:01.299Z,79.70
2018-07-09T08:07:28.881Z,79.40
2018-07-09T08:09:56.438Z,78.70
2018-07-09T08:14:51.713Z,77.90
2018-07-09T08:17:19.375Z,77.80
2018-07-09T08:19:47.021Z,77.10
2018-07-09T08:22:14.579Z,76.80
2018-07-09T08:24:42.126Z,76.80
2018-07-09T08:27:09.725Z,76.40
2018-07-09T08:29:37.284Z,76.30
2018-07-09T08:32:04.901Z,77.10
2018-07-09T08:34:32.439Z,76.00
2018-07-09T08:36:59.979Z,76.20
2018-07-09T08:39:27.569Z,74.90
2018-07-09T08:41:55.141Z,74.30
2018-07-09T08:44:22.728Z,74.10
2018-07-09T08:46:50.296Z,73.60
2018-07-09T08:49:17.843Z,73.50
2018-07-09T08:51:45.386Z,73.80
2018-07-09T08:54:13.272Z,73.90
2018-07-09T08:56:40.784Z,73.00
2018-07-09T08:59:08.368Z,72.00
2018-07-09T09:01:35.930Z,70.70
2018-07-09T09:04:03.528Z,69.20
2018-07-09T09:06:31.164Z,69.40
2018-07-09T09:08:58.739Z,68.00
2018-07-09T09:11:26.351Z,67.30
2018-07-09T09:13:54.011Z,67.50
2018-07-09T09:16:21.626Z,65.60
2018-07-09T09:18:49.446Z,65.60
2018-07-09T09:21:16.992Z,63.90
2018-07-09T09:23:44.567Z,62.60
2018-07-09T09:26:12.102Z,61.30
2018-07-09T09:28:39.943Z,61.70
2018-07-09T09:31:07.538Z,60.80
2018-07-09T09:33:35.051Z,59.80
2018-07-09T09:36:02.662Z,59.20
2018-07-09T09:38:30.233Z,60.00
2018-07-09T09:40:57.867Z,60.00
2018-07-09T09:43:25.405Z,56.10
2018-07-09T09:45:52.955Z,54.60
2018-07-09T09:48:20.540Z,55.10
2018-07-09T09:50:48.091Z,55.40
2018-07-09T09:53:15.661Z,55.80
2018-07-09T09:55:43.213Z,54.00
2018-07-09T09:58:10.773Z,52.70
2018-07-09T10:00:43.897Z,51.70
2018-07-09T10:03:11.465Z,51.80
2018-07-09T10:05:39.038Z,52.30
2018-07-09T10:08:06.561Z,52.80
2018-07-09T10:10:34.157Z,52.00
2018-07-09T10:13:01.711Z,51.30
2018-07-09T10:15:29.273Z,50.80
2018-07-09T10:17:56.919Z,50.60
2018-07-09T10:20:24.806Z,50.80
2018-07-09T10:22:52.392Z,50.70
2018-07-09T10:25:20.037Z,50.20
2018-07-09T10:27:48.582Z,49.80
2018-07-09T10:30:15.257Z,48.80
2018-07-09T10:32:42.825Z,48.90
2018-07-09T10:35:10.617Z,48.10
2018-07-09T10:37:38.235Z,46.90
2018-07-09T10:40:06.051Z,46.40
2018-07-09T10:42:33.608Z,44.90
2018-07-09T10:45:01.362Z,44.30
2018-07-09T10:47:28.960Z,43.80
2018-07-09T10:49:56.751Z,43.90
2018-07-09T10:52:24.377Z,44.10
2018-07-09T10:54:52.014Z,43.50
2018-07-09T10:57:19.959Z,42.80
2018-07-09T10:59:47.552Z,42.50
2018-07-09T11:02:15.220Z,42.10
2018-07-09T11:04:42.773Z,42.50
2018-07-09T11:07:10.403Z,42.40
2018-07-09T11:09:37.980Z,43.90
2018-07-09T11:12:05.576Z,43.20
2018-07-09T11:14:33.142Z,43.50
2018-07-09T11:17:00.701Z,43.90
2018-07-09T11:19:28.365Z,43.40
2018-07-09T11:21:55.900Z,41.90
2018-07-09T11:24:23.492Z,40.60
2018-07-09T11:26:51.072Z,39.80
2018-07-09T11:29:18.712Z,38.70
2018-07-09T11:31:46.276Z,38.80
2018-07-09T11:34:14.022Z,39.30
2018-07-09T11:36:41.629Z,39.50
2018-07-09T11:39:09.226Z,40.60
2018-07-09T11:41:36.766Z,41.70
2018-07-09T11:44:04.365Z,41.80
2018-07-09T11:46:31.948Z,42.20
2018-07-09T11:48:59.656Z,42.90
2018-07-09T11:51:27.210Z,43.30
2018-07-09T11:53:54.756Z,42.70
2018-07-09T11:56:22.510Z,41.90
2018-07-09T11:58:50.383Z,41.60
2018-07-09T12:01:17.954Z,40.30
2018-07-09T12:03:45.538Z,39.20
2018-07-09T12:06:13.132Z,39.70
2018-07-09T12:08:40.794Z,39.50
2018-07-09T12:11:08.441Z,39.40
2018-07-09T12:13:36.016Z,39.80
2018-07-09T12:16:03.606Z,39.20
2018-07-09T12:18:31.810Z,39.70
2018-07-09T12:20:59.496Z,41.50
2018-07-09T12:23:27.080Z,42.10
2018-07-09T12:25:54.633Z,43.60
2018-07-09T12:28:23.049Z,43.60
2018-07-09T12:30:50.624Z,43.00
2018-07-09T12:33:18.209Z,43.30
2018-07-09T12:35:45.758Z,43.50
2018-07-09T12:38:13.363Z,44.50
2018-07-09T12:40:40.918Z,45.10
2018-07-09T12:43:08.908Z,45.60
2018-07-09T12:45:36.516Z,45.30
2018-07-09T12:48:04.252Z,46.30
2018-07-09T12:50:31.853Z,46.20
2018-07-09T12:52:59.405Z,46.60
2018-07-09T12:55:26.985Z,47.80
2018-07-09T12:57:54.553Z,48.30
2018-07-09T13:00:22.196Z,48.40
2018-07-09T13:02:49.779Z,48.90
2018-07-09T13:05:17.359Z,48.10
2018-07-09T13:07:44.938Z,47.60
2018-07-09T13:10:12.511Z,48.30
2018-07-09T13:12:40.080Z,47.30
2018-07-09T13:15:07.653Z,47.60
2018-07-09T13:17:35.363Z,47.70
2018-07-09T13:20:03.036Z,44.80
2018-07-09T13:22:30.627Z,41.60
2018-07-09T13:24:58.160Z,40.50
2018-07-09T13:27:25.710Z,39.80
2018-07-09T13:29:53.526Z,38.00
2018-07-09T13:32:21.199Z,37.90
2018-07-09T13:34:48.777Z,37.60
2018-07-09T13:37:16.362Z,37.60
2018-07-09T13:39:43.986Z,38.50
2018-07-09T13:42:11.578Z,38.90
2018-07-09T13:44:39.176Z,39.80
2018-07-09T13:47:06.801Z,39.20
2018-07-09T13:49:34.488Z,39.70
2018-07-09T13:52:02.085Z,39.90
2018-07-09T13:54:29.777Z,40.20
2018-07-09T13:56:57.384Z,41.00
2018-07-09T13:59:25.090Z,41.70
2018-07-09T14:01:52.690Z,41.60
2018-07-09T14:04:20.256Z,42.40
2018-07-09T14:06:47.874Z,42.80
2018-07-09T14:09:15.446Z,43.50
2018-07-09T14:11:42.982Z,42.80
2018-07-09T14:14:10.579Z,42.10
2018-07-09T14:16:38.231Z,42.00
2018-07-09T14:19:17.070Z,42.30
2018-07-09T14:21:44.628Z,42.20
2018-07-09T14:24:12.176Z,41.80
2018-07-09T14:26:39.721Z,41.80
2018-07-09T14:29:07.250Z,42.00
2018-07-09T14:31:34.834Z,40.90
2018-07-09T14:34:02.442Z,41.80
2018-07-09T14:36:29.982Z,42.70
2018-07-09T14:38:57.590Z,42.80
2018-07-09T14:41:25.138Z,42.80
2018-07-09T14:43:52.702Z,42.20
2018-07-09T14:46:20.257Z,41.60
2018-07-09T14:48:47.792Z,40.70
2018-07-09T14:51:15.348Z,41.60
2018-07-09T14:53:42.934Z,42.00
2018-07-09T14:56:10.482Z,42.40
2018-07-09T14:58:38.106Z,42.00
2018-07-09T15:01:05.751Z,39.80
2018-07-09T15:03:33.329Z,38.90
2018-07-09T15:06:00.876Z,38.10
2018-07-09T15:08:28.451Z,38.70
2018-07-09T15:10:56.059Z,39.00
2018-07-09T15:13:23.669Z,38.70
2018-07-09T15:15:51.367Z,38.30
2018-07-09T15:18:18.918Z,38.40
2018-07-09T15:20:46.464Z,38.30
2018-07-09T15:23:14.089Z,38.90
2018-07-09T15:25:41.692Z,38.60
2018-07-09T15:28:09.234Z,39.10
2018-07-09T15:30:36.818Z,39.60
2018-07-09T15:33:04.473Z,39.50
2018-07-09T15:35:32.071Z,39.10
2018-07-09T15:37:59.638Z,38.40
2018-07-09T15:40:27.252Z,38.60
2018-07-09T15:42:54.847Z,39.40
2018-07-09T15:45:22.544Z,40.10
2018-07-09T15:47:50.374Z,40.30
2018-07-09T15:50:17.992Z,40.20
2018-07-09T15:52:45.566Z,40.20
2018-07-09T15:55:13.119Z,38.80
2018-07-09T15:57:40.696Z,38.20
2018-07-09T16:00:08.460Z,37.00
2018-07-09T16:02:35.954Z,36.20
2018-07-09T16:05:03.614Z,35.70
2018-07-09T16:07:31.172Z,35.60
2018-07-09T16:09:58.821Z,35.60
2018-07-09T16:12:26.490Z,37.00
2018-07-09T16:14:54.123Z,37.80
2018-07-09T16:17:21.716Z,38.00
2018-07-09T16:19:49.337Z,38.30
2018-07-09T16:22:16.920Z,39.30
2018-07-09T16:24:44.482Z,39.40
2018-07-09T16:27:12.073Z,39.10
2018-07-09T16:29:39.648Z,39.20
2018-07-09T16:32:07.196Z,39.50
2018-07-09T16:34:34.808Z,40.00
2018-07-09T16:37:02.530Z,40.80
2018-07-09T16:39:30.260Z,41.70
2018-07-09T16:41:57.887Z,42.20
2018-07-09T16:44:25.561Z,42.70
2018-07-09T16:46:53.201Z,42.30
2018-07-09T16:49:20.759Z,42.20
2018-07-09T16:51:48.399Z,42.00
2018-07-09T16:54:16.101Z,42.80
2018-07-09T16:56:43.735Z,43.50
2018-07-09T16:59:11.265Z,44.00
2018-07-09T17:01:38.814Z,44.20
2018-07-09T17:04:06.449Z,44.80
2018-07-09T17:06:34.059Z,45.70
2018-07-09T17:09:01.657Z,46.60
2018-07-09T17:11:29.297Z,47.30
2018-07-09T17:13:57.278Z,46.80
2018-07-09T17:16:24.933Z,46.80
2018-07-09T17:18:52.506Z,47.40
2018-07-09T17:21:20.109Z,48.40
2018-07-09T17:23:47.740Z,49.20
2018-07-09T17:26:15.319Z,49.80
2018-07-09T17:28:42.903Z,50.10
2018-07-09T17:31:10.496Z,50.50
2018-07-09T17:33:38.087Z,50.50
2018-07-09T17:36:05.704Z,50.50
2018-07-09T17:38:33.333Z,50.90
2018-07-09T17:41:00.925Z,51.20
2018-07-09T17:43:28.575Z,51.00
2018-07-09T17:45:56.224Z,51.70
2018-07-09T17:48:23.837Z,51.70
2018-07-09T17:50:51.385Z,52.20
2018-07-09T17:53:18.974Z,52.70
2018-07-09T17:55:46.601Z,52.90
2018-07-09T17:58:14.272Z,53.50
2018-07-09T18:00:41.907Z,53.80
2018-07-09T18:03:09.530Z,55.40
2018-07-09T18:05:37.143Z,56.00
2018-07-09T18:08:04.892Z,56.50
2018-07-09T18:10:32.442Z,55.90
2018-07-09T18:13:00.039Z,55.60
2018-07-09T18:15:27.698Z,55.80
2018-07-09T18:17:55.295Z,56.60
2018-07-09T18:20:23.088Z,58.50
2018-07-09T18:22:50.753Z,59.90
2018-07-09T18:25:18.386Z,59.60
2018-07-09T18:27:46.049Z,59.70
2018-07-09T18:30:13.680Z,60.40
2018-07-09T18:32:41.396Z,61.40
2018-07-09T18:35:09.072Z,62.50
2018-07-09T18:37:36.657Z,62.80
2018-07-09T18:40:04.344Z,62.80
2018-07-09T18:42:32.006Z,63.10
2018-07-09T18:44:59.661Z,64.00
2018-07-09T18:47:27.316Z,64.30
2018-07-09T18:49:54.985Z,63.60
2018-07-09T18:52:22.758Z,64.40
2018-07-09T18:54:50.684Z,64.70
2018-07-09T18:57:18.459Z,64.20
2018-07-09T18:59:46.125Z,63.20
2018-07-09T19:02:13.782Z,62.80
2018-07-09T19:04:41.505Z,63.00
2018-07-09T19:07:10.310Z,63.70
2018-07-09T19:09:38.771Z,64.00
2018-07-09T19:12:07.278Z,64.80
2018-07-09T19:14:43.789Z,65.70
2018-07-09T19:18:20.958Z,66.80
2018-07-09T19:21:27.291Z,69.00
2018-07-09T19:23:54.201Z,70.30
2018-07-09T19:26:20.957Z,72.00
2018-07-09T19:28:47.494Z,72.90
2018-07-09T19:31:14.079Z,73.40
2018-07-09T19:33:40.636Z,73.60
2018-07-09T19:36:08.511Z,73.60
2018-07-09T19:38:35.657Z,73.60
2018-07-09T19:41:02.208Z,74.60
2018-07-09T19:43:28.808Z,75.50
2018-07-09T19:45:55.385Z,75.20
2018-07-09T19:48:21.925Z,74.90
2018-07-09T19:50:48.432Z,74.80
2018-07-09T19:53:14.962Z,75.70
2018-07-09T19:55:41.971Z,76.90
2018-07-09T19:58:08.474Z,77.60
2018-07-09T20:00:36.472Z,78.30
2018-07-09T20:03:03.478Z,79.20
2018-07-09T20:05:30.281Z,79.90
2018-07-09T20:07:57.195Z,79.90
2018-07-09T20:10:29.290Z,79.60
2018-07-09T20:13:01.353Z,80.20
2018-07-09T20:15:33.415Z,80.20
2018-07-09T20:17:59.907Z,80.70
2018-07-09T20:20:27.374Z,81.60
2018-07-09T20:22:54.374Z,82.30
2018-07-09T20:25:20.959Z,83.80
2018-07-09T20:27:47.795Z,84.90
2018-07-09T20:30:14.336Z,85.80
2018-07-09T20:32:40.890Z,86.40
2018-07-09T20:35:07.402Z,87.30
2018-07-09T20:37:33.901Z,88.20
2018-07-09T20:40:00.422Z,89.20
2018-07-09T20:42:26.944Z,90.10
2018-07-09T20:44:53.680Z,90.00
2018-07-09T20:47:20.160Z,88.80
2018-07-09T20:49:46.734Z,88.00
2018-07-09T20:52:13.214Z,87.90
2018-07-09T20:54:39.701Z,87.80
2018-07-09T20:57:06.211Z,87.90
2018-07-09T20:59:32.664Z,88.20
2018-07-09T21:01:59.170Z,88.70
2018-07-09T21:04:26.263Z,89.30
2018-07-09T21:06:54.148Z,90.00
2018-07-09T21:09:20.921Z,90.40
2018-07-09T21:11:47.507Z,90.80
2018-07-09T21:14:13.974Z,91.20
2018-07-09T21:16:40.671Z,91.60
2018-07-09T21:19:07.495Z,91.90
2018-07-09T21:21:33.975Z,91.90
2018-07-09T21:24:00.454Z,92.00
2018-07-09T21:26:26.921Z,92.10
2018-07-09T21:28:53.562Z,92.30
2018-07-09T21:31:20.053Z,92.50
2018-07-09T21:33:46.530Z,92.60
2018-07-09T21:36:13.169Z,92.60
2018-07-09T21:38:40.486Z,92.60
2018-07-09T21:41:06.971Z,92.50
2018-07-09T21:43:33.550Z,92.50
2018-07-09T21:45:59.996Z,92.60
2018-07-09T21:48:29.795Z,92.70
2018-07-09T21:50:53.181Z,92.80
2018-07-09T21:53:20.217Z,92.90
2018-07-09T21:55:46.698Z,93.10
2018-07-09T21:58:13.167Z,93.20
2018-07-09T22:00:39.655Z,93.30
2018-07-09T22:03:06.160Z,93.40
2018-07-09T22:05:32.613Z,93.50
2018-07-09T22:07:59.083Z,93.60
2018-07-09T22:10:25.561Z,93.70
2018-07-09T22:12:52.048Z,93.80
2018-07-09T22:15:18.513Z,93.80
2018-07-09T22:17:45.000Z,94.00
2018-07-09T22:20:11.484Z,94.10
2018-07-09T22:22:37.928Z,94.10
2018-07-09T22:25:04.544Z,94.20
2018-07-09T22:27:31.494Z,94.20
2018-07-09T22:29:57.995Z,94.20
2018-07-09T22:32:25.572Z,94.20
2018-07-09T22:34:53.282Z,94.30
2018-07-09T22:37:21.281Z,94.30
2018-07-09T22:39:48.836Z,94.40
2018-07-09T22:42:16.744Z,94.50
2018-07-09T22:44:44.255Z,94.60
2018-07-09T22:47:11.790Z,94.70
2018-07-09T22:49:40.074Z,94.90
2018-07-09T22:52:07.649Z,95.00
2018-07-09T22:54:35.541Z,95.10
2018-07-09T22:57:03.122Z,95.20
2018-07-09T22:59:30.674Z,95.30
2018-07-09T23:01:58.249Z,95.40
2018-07-09T23:04:25.823Z,95.50
2018-07-09T23:06:53.414Z,95.50
2018-07-09T23:09:40.009Z,95.40
2018-07-09T23:12:17.658Z,95.40
2018-07-09T23:14:57.410Z,95.10
2018-07-09T23:17:36.153Z,94.80
2018-07-09T23:22:44.662Z,94.60
2018-07-09T23:25:11.140Z,94.40
2018-07-09T23:27:37.602Z,94.40
2018-07-09T23:30:04.074Z,94.20
2018-07-09T23:32:30.516Z,93.30
2018-07-09T23:34:56.999Z,92.70
2018-07-09T23:37:23.478Z,92.80
2018-07-09T23:39:49.922Z,93.10
2018-07-09T23:42:16.537Z,93.10
2018-07-09T23:44:42.921Z,93.30
2018-07-09T23:47:09.418Z,93.60
2018-07-09T23:49:35.880Z,94.20
2018-07-09T23:52:02.328Z,94.80
2018-07-09T23:54:29.628Z,95.40
2018-07-09T23:57:13.018Z,96.20
2018-07-09T23:59:52.051Z,96.80
